Time;durP1;ratioP1;P1;durP2;ratioP2;P2;SDS_P1;SDS_P2;PMS_P1;PMS_P2;Temp;Humidity;BMP_temperature;BMP_pressure;BME280_temperature;BME280_humidity;BME280_pressure;Samples;Min_cycle;Max_cycle;Signal;HPM_P1;HPM_P2
2022/03/21 00:01:56;;;;;;;59.08;31.85;;;;;;;2.44;66.36;102846.03;5087353;28;20395;-82
2022/03/21 00:04:23;;;;;;;60.55;31.25;;;;;;;2.49;66.08;102862.69;5084364;28;20518;-84
2022/03/21 00:06:48;;;;;;;67.55;34.72;;;;;;;2.44;67.05;102853.84;5090971;28;20131;-82
2022/03/21 00:09:14;;;;;;;69.78;34.60;;;;;;;2.50;66.71;102860.97;5091725;28;20111;-84
2022/03/21 00:11:39;;;;;;;66.07;31.90;;;;;;;2.54;66.33;102849.75;5089002;28;20025;-82
2022/03/21 00:14:05;;;;;;;64.70;34.25;;;;;;;2.61;65.65;102850.78;5084391;28;20027;-83
2022/03/21 00:16:30;;;;;;;67.35;35.05;;;;;;;2.63;66.34;102862.16;5087131;28;20335;-83
2022/03/21 00:18:55;;;;;;;61.92;33.45;;;;;;;2.45;66.70;102860.84;5087089;28;20035;-84
2022/03/21 00:21:21;;;;;;;57.38;32.47;;;;;;;2.39;67.07;102865.91;5083055;28;20028;-82
2022/03/21 00:23:47;;;;;;;66.15;33.85;;;;;;;2.37;66.69;102856.25;5078702;28;20067;-82
2022/03/21 00:26:13;;;;;;;63.25;32.38;;;;;;;2.50;66.44;102867.06;5082022;28;20028;-83
2022/03/21 00:28:38;;;;;;;62.50;34.28;;;;;;;2.53;65.95;102867.16;5078609;28;20027;-82
2022/03/21 00:31:04;;;;;;;65.82;33.47;;;;;;;2.58;67.02;102864.66;5079779;28;20046;-83
2022/03/21 00:33:30;;;;;;;62.28;33.25;;;;;;;2.52;65.90;102864.50;5081817;28;20169;-83
2022/03/21 00:35:58;;;;;;;69.45;35.45;;;;;;;2.56;66.07;102876.78;5082540;28;20123;-83
2022/03/21 00:38:24;;;;;;;60.13;32.53;;;;;;;2.51;65.99;102875.78;5081736;28;20028;-82
2022/03/21 00:40:50;;;;;;;62.38;33.75;;;;;;;2.58;66.06;102871.59;5083435;28;20085;-83
2022/03/21 00:43:22;;;;;;;68.30;33.55;;;;;;;2.62;65.76;102876.94;5081209;28;20067;-83
2022/03/21 00:45:49;;;;;;;62.05;33.28;;;;;;;2.51;65.49;102861.00;5082453;28;20039;-83
2022/03/21 00:48:14;;;;;;;63.65;35.15;;;;;;;2.58;70.35;102875.09;5082800;28;20023;-82
2022/03/21 00:50:40;;;;;;;66.70;35.33;;;;;;;2.53;66.75;102882.81;5078932;28;20020;-83
2022/03/21 00:53:06;;;;;;;58.67;32.22;;;;;;;2.52;66.69;102880.19;5081397;28;20040;-82
2022/03/21 00:55:31;;;;;;;56.15;31.45;;;;;;;2.52;69.27;102882.78;5082865;28;20480;-83
2022/03/21 00:57:58;;;;;;;51.65;29.67;;;;;;;2.48;67.09;102883.53;5080401;28;20656;-82
2022/03/21 01:00:26;;;;;;;58.03;31.05;;;;;;;2.40;66.76;102892.91;5083676;28;20448;-82
2022/03/21 01:02:52;;;;;;;52.13;29.92;;;;;;;2.33;67.05;102888.34;5079001;28;20042;-83
2022/03/21 01:05:17;;;;;;;56.92;32.75;;;;;;;2.27;70.39;102884.72;5079750;28;20050;-83
2022/03/21 01:07:43;;;;;;;58.13;30.58;;;;;;;2.33;67.43;102894.44;5075022;28;20036;-83
2022/03/21 01:10:14;;;;;;;49.15;27.20;;;;;;;2.17;68.82;102892.28;5079549;28;20382;-82
2022/03/21 01:12:40;;;;;;;44.05;26.85;;;;;;;2.14;67.87;102898.28;5078410;28;20032;-82
2022/03/21 01:15:07;;;;;;;45.53;26.23;;;;;;;2.13;67.96;102896.50;5081509;28;20111;-84
2022/03/21 01:17:32;;;;;;;43.22;25.38;;;;;;;2.15;67.59;102897.47;5077738;28;20036;-83
2022/03/21 01:19:57;;;;;;;45.55;24.83;;;;;;;2.15;67.25;102907.03;5081632;28;20016;-82
2022/03/21 01:22:23;;;;;;;44.05;25.73;;;;;;;2.13;67.37;102901.75;5074929;28;20041;-83
2022/03/21 01:24:48;;;;;;;43.15;24.98;;;;;;;2.09;66.74;102894.66;5079864;28;20028;-82
2022/03/21 01:27:13;;;;;;;44.88;26.15;;;;;;;2.17;69.43;102903.59;5078296;28;20040;-82
2022/03/21 01:29:39;;;;;;;51.80;26.92;;;;;;;2.16;67.13;102900.94;5080901;28;20031;-83
2022/03/21 01:32:04;;;;;;;50.67;28.42;;;;;;;2.09;66.84;102892.06;5081341;28;20028;-83
2022/03/21 01:34:30;;;;;;;49.25;27.08;;;;;;;2.06;66.84;102896.31;5077838;28;20151;-84
2022/03/21 01:36:55;;;;;;;49.90;27.35;;;;;;;2.05;66.44;102898.03;5079793;28;20111;-82
2022/03/21 01:39:21;;;;;;;52.38;28.00;;;;;;;2.03;67.60;102908.44;5080443;28;20082;-83
2022/03/21 01:41:47;;;;;;;49.22;28.13;;;;;;;1.84;66.82;102900.91;5079112;28;20047;-83
2022/03/21 01:44:13;;;;;;;51.35;28.40;;;;;;;1.72;68.94;102895.34;5079832;28;20032;-83
2022/03/21 01:46:39;;;;;;;58.55;30.38;;;;;;;1.71;67.92;102907.50;5079615;28;20035;-83
2022/03/21 01:49:07;;;;;;;54.65;28.35;;;;;;;1.76;68.83;102903.28;5075929;28;20103;-82
2022/03/21 01:51:35;;;;;;;55.58;30.00;;;;;;;1.82;70.95;102889.56;5078527;28;21457;-83
2022/03/21 01:56:47;;;;;;;57.40;30.77;;;;;;;1.88;70.46;102899.28;5080933;28;20404;-83
2022/03/21 01:59:13;;;;;;;56.25;29.17;;;;;;;1.82;68.03;102901.69;5081398;28;20447;-83
2022/03/21 02:01:40;;;;;;;54.55;29.40;;;;;;;1.85;71.17;102896.59;5081162;28;20062;-82
2022/03/21 02:04:07;;;;;;;52.92;28.83;;;;;;;1.88;67.39;102901.91;5080237;28;20031;-82
2022/03/21 02:06:32;;;;;;;51.17;27.70;;;;;;;1.84;66.70;102900.03;5077564;28;20040;-82
2022/03/21 02:08:59;;;;;;;54.53;30.85;;;;;;;1.78;67.23;102895.53;5079851;28;20448;-82
2022/03/21 02:11:26;;;;;;;53.53;29.60;;;;;;;1.74;67.07;102891.94;5079862;28;20090;-83
2022/03/21 02:13:58;;;;;;;57.58;31.08;;;;;;;1.70;67.24;102897.91;5078927;28;20032;-83
2022/03/21 02:16:28;;;;;;;55.97;28.45;;;;;;;1.64;67.07;102891.66;5082346;28;20040;-83
2022/03/21 02:18:55;;;;;;;51.75;27.92;;;;;;;1.61;66.57;102897.63;5079599;28;20024;-83
2022/03/21 02:21:31;;;;;;;53.25;29.05;;;;;;;1.64;66.84;102904.69;5075143;28;20468;-83
2022/03/21 02:24:02;;;;;;;57.28;30.88;;;;;;;1.64;68.86;102908.16;5080518;28;20035;-82
2022/03/21 02:26:29;;;;;;;55.55;30.55;;;;;;;1.62;68.24;102911.56;5077011;28;20023;-83
2022/03/21 02:28:56;;;;;;;54.00;30.20;;;;;;;1.59;70.40;102901.06;5078855;28;20114;-82
2022/03/21 02:31:23;;;;;;;58.58;32.25;;;;;;;1.63;68.74;102909.00;5079554;28;20182;-83
2022/03/21 02:33:49;;;;;;;61.63;33.00;;;;;;;1.63;70.79;102908.09;5076779;28;20044;-82
2022/03/21 02:36:16;;;;;;;63.05;32.17;;;;;;;1.57;72.01;102900.09;5081939;28;20032;-83
2022/03/21 02:38:45;;;;;;;57.33;29.88;;;;;;;1.55;70.36;102902.69;5076374;28;20048;-83
2022/03/21 02:41:12;;;;;;;58.03;29.77;;;;;;;1.55;69.31;102905.28;5077982;28;20032;-82
2022/03/21 02:43:54;;;;;;;53.75;28.95;;;;;;;1.60;68.29;102905.41;5077129;28;20032;-83
2022/03/21 02:46:19;;;;;;;55.03;31.65;;;;;;;1.53;68.71;102902.59;5080013;28;20027;-82
2022/03/21 02:48:46;;;;;;;58.13;31.60;;;;;;;1.50;69.08;102902.53;5075699;28;20024;-82
2022/03/21 02:51:12;;;;;;;57.70;30.45;;;;;;;1.50;68.97;102896.44;5079081;28;20155;-83
2022/03/21 02:53:39;;;;;;;68.35;33.40;;;;;;;1.48;71.77;102903.31;5075318;28;20562;-82
2022/03/21 02:56:05;;;;;;;58.35;31.13;;;;;;;1.47;71.44;102897.22;5078203;28;20388;-83
2022/03/21 02:58:30;;;;;;;59.22;30.20;;;;;;;1.50;69.62;102899.06;5079065;28;20042;-84
2022/03/21 03:01:07;;;;;;;61.67;32.53;;;;;;;1.51;71.87;102898.22;5081460;28;20020;-82
2022/03/21 03:03:32;;;;;;;59.67;31.65;;;;;;;1.46;70.46;102889.38;5076411;28;20557;-83
2022/03/21 03:05:58;;;;;;;57.28;30.35;;;;;;;1.40;69.59;102896.97;5080782;28;20114;-83
2022/03/21 03:08:23;;;;;;;52.08;29.17;;;;;;;1.38;68.87;102896.94;5079286;28;20027;-83
2022/03/21 03:10:48;;;;;;;52.83;29.08;;;;;;;1.37;69.50;102904.72;5081266;28;20473;-82
2022/03/21 03:13:14;;;;;;;55.80;28.50;;;;;;;1.27;68.26;102891.41;5077304;28;20059;-83
2022/03/21 03:15:39;;;;;;;54.60;27.95;;;;;;;1.24;68.10;102904.31;5080960;28;20060;-82
2022/03/21 03:18:04;;;;;;;63.47;30.88;;;;;;;1.25;70.33;102897.38;5079357;28;20058;-83
2022/03/21 03:20:29;;;;;;;58.70;29.30;;;;;;;1.21;68.54;102900.72;5079680;28;20312;-84
2022/03/21 03:22:55;;;;;;;57.08;30.27;;;;;;;1.20;68.17;102902.47;5082191;28;20028;-82
2022/03/21 03:25:20;;;;;;;54.60;28.02;;;;;;;1.21;68.32;102905.94;5082425;28;20028;-83
2022/03/21 03:27:45;;;;;;;58.08;29.58;;;;;;;1.21;68.29;102905.94;5084038;28;20115;-83
2022/03/21 03:30:11;;;;;;;59.80;29.70;;;;;;;1.19;69.31;102905.03;5083314;28;20521;-82
2022/03/21 03:32:36;;;;;;;54.25;28.85;;;;;;;1.16;68.76;102912.72;5084655;28;20115;-82
2022/03/21 03:35:02;;;;;;;62.50;32.53;;;;;;;1.01;69.22;102915.72;5083494;28;20241;-82
2022/03/21 03:37:27;;;;;;;58.20;31.05;;;;;;;0.87;69.68;102911.78;5083045;28;20055;-82
2022/03/21 03:39:53;;;;;;;59.53;30.60;;;;;;;0.90;69.48;102911.91;5083387;28;20137;-82
2022/03/21 03:42:20;;;;;;;55.92;30.25;;;;;;;0.88;69.33;102910.97;5081765;28;20094;-82
2022/03/21 03:44:46;;;;;;;67.90;33.88;;;;;;;0.91;70.64;102903.25;5083623;28;20032;-82
2022/03/21 03:47:11;;;;;;;61.65;31.35;;;;;;;0.95;71.15;102911.22;5083770;28;20549;-83
2022/03/21 03:49:36;;;;;;;59.13;31.95;;;;;;;0.97;69.56;102914.75;5085026;28;20031;-83
2022/03/21 03:52:02;;;;;;;64.72;32.42;;;;;;;0.98;69.70;102911.34;5082536;28;20403;-82
2022/03/21 03:54:27;;;;;;;60.00;30.52;;;;;;;0.99;69.07;102922.63;5082664;28;20027;-83
2022/03/21 03:56:52;;;;;;;59.40;30.77;;;;;;;0.99;68.98;102918.31;5081431;28;20036;-82
2022/03/21 03:59:18;;;;;;;60.17;31.58;;;;;;;0.94;68.93;102919.88;5082177;28;20035;-83
2022/03/21 04:01:43;;;;;;;59.15;31.63;;;;;;;0.92;68.99;102924.13;5081478;28;20636;-83
2022/03/21 04:04:08;;;;;;;59.13;31.80;;;;;;;0.79;68.61;102927.16;5082173;28;20085;-83
2022/03/21 04:06:34;;;;;;;60.47;28.88;;;;;;;0.73;70.61;102930.44;5084195;28;20107;-83
2022/03/21 04:08:59;;;;;;;57.28;30.33;;;;;;;0.74;69.60;102936.53;5080355;28;20575;-82
2022/03/21 04:11:25;;;;;;;69.70;33.55;;;;;;;0.68;70.28;102934.59;5083089;28;20471;-82
2022/03/21 04:13:51;;;;;;;61.35;32.15;;;;;;;0.64;69.91;102931.84;5083290;28;20027;-83
2022/03/21 04:16:17;;;;;;;57.95;31.05;;;;;;;0.57;69.94;102928.16;5082784;28;20023;-83
2022/03/21 04:18:42;;;;;;;63.00;30.92;;;;;;;0.58;69.56;102921.25;5082196;28;20081;-83
2022/03/21 04:21:07;;;;;;;57.95;31.30;;;;;;;0.58;69.51;102929.94;5080877;28;20038;-84
2022/03/21 04:23:33;;;;;;;61.55;30.45;;;;;;;0.58;69.35;102911.72;5081057;28;20552;-83
2022/03/21 04:25:58;;;;;;;60.25;32.60;;;;;;;0.68;70.78;102928.53;5083125;28;20499;-82
2022/03/21 04:28:24;;;;;;;60.90;32.55;;;;;;;0.70;69.07;102924.25;5080608;28;20573;-83
2022/03/21 04:30:49;;;;;;;60.13;31.58;;;;;;;0.68;69.40;102923.31;5083479;28;20135;-83
2022/03/21 04:33:15;;;;;;;61.78;33.17;;;;;;;0.68;71.54;102915.50;5081772;28;20031;-82
2022/03/21 04:35:42;;;;;;;64.18;32.40;;;;;;;0.67;70.15;102918.94;5082025;28;20384;-82
2022/03/21 04:38:13;;;;;;;62.33;32.50;;;;;;;0.48;70.53;102925.25;5082015;28;20043;-84
2022/03/21 04:40:47;;;;;;;61.22;32.53;;;;;;;0.43;70.19;102924.19;5081383;28;20040;-82
2022/03/21 04:43:15;;;;;;;61.45;32.95;;;;;;;0.43;69.95;102927.69;5082105;28;20032;-83
2022/03/21 04:45:42;;;;;;;69.38;34.33;;;;;;;0.53;72.77;102928.88;5083162;28;20690;-83
2022/03/21 04:48:08;;;;;;;59.00;31.23;;;;;;;0.61;71.79;102932.66;5079376;28;20058;-83
2022/03/21 04:50:34;;;;;;;63.03;32.75;;;;;;;0.60;69.75;102938.66;5080326;28;20024;-83
2022/03/21 04:52:59;;;;;;;64.00;32.72;;;;;;;0.59;68.78;102930.81;5079600;28;20075;-84
2022/03/21 04:55:25;;;;;;;58.97;29.73;;;;;;;0.56;70.62;102931.59;5079225;28;20159;-83
2022/03/21 04:57:51;;;;;;;63.47;32.15;;;;;;;0.53;69.70;102931.50;5081643;28;20089;-83
2022/03/21 05:00:16;;;;;;;68.03;33.22;;;;;;;0.47;70.33;102934.78;5080832;28;20028;-83
2022/03/21 05:02:42;;;;;;;60.67;31.13;;;;;;;0.31;70.26;102924.63;5078585;28;20060;-82
2022/03/21 05:05:11;;;;;;;68.47;32.67;;;;;;;0.32;70.33;102944.63;5077601;28;20043;-83
2022/03/21 05:07:40;;;;;;;64.07;33.63;;;;;;;0.15;71.81;102957.03;5077599;28;20019;-83
2022/03/21 05:10:06;;;;;;;67.22;34.67;;;;;;;-0.10;71.59;102939.63;5081073;28;20107;-83
2022/03/21 05:12:31;;;;;;;60.17;30.83;;;;;;;-0.06;71.17;102941.50;5081695;28;20444;-83
2022/03/21 05:14:57;;;;;;;67.60;32.58;;;;;;;0.03;71.38;102956.56;5082321;28;20038;-82
2022/03/21 05:17:22;;;;;;;70.10;32.30;;;;;;;0.03;70.46;102958.28;5081827;28;20340;-82
2022/03/21 05:19:47;;;;;;;60.83;31.35;;;;;;;-0.04;70.74;102949.38;5077350;28;20103;-83
2022/03/21 05:22:13;;;;;;;65.93;31.95;;;;;;;-0.05;71.21;102945.91;5082642;28;20182;-83
2022/03/21 05:35:52;;;;;;;65.80;31.90;;;;;;;0.23;72.98;102952.09;5079871;28;20097;-83
2022/03/21 05:35:55;;;;;;;68.60;32.88;;;;;;;0.27;70.76;102953.09;5081780;28;20032;-82
2022/03/21 05:38:23;;;;;;;65.57;33.10;;;;;;;0.28;70.76;102954.84;5080240;28;20622;-82
2022/03/21 05:40:48;;;;;;;66.30;32.88;;;;;;;0.24;71.45;102948.69;5081712;28;20159;-83
2022/03/21 05:43:14;;;;;;;62.83;31.33;;;;;;;0.20;70.75;102942.47;5077516;28;20140;-83
2022/03/21 05:45:39;;;;;;;64.38;32.53;;;;;;;0.26;71.48;102949.59;5080986;28;20081;-82
2022/03/21 05:50:48;;;;;;;68.45;33.17;;;;;;;0.37;71.27;102944.78;5081238;28;20047;-82
2022/03/21 05:53:14;;;;;;;67.47;31.95;;;;;;;0.38;70.88;102943.97;5078182;28;20020;-82
2022/03/21 05:55:39;;;;;;;62.33;32.13;;;;;;;0.48;72.78;102949.53;5079591;28;20099;-82
2022/03/21 05:58:04;;;;;;;71.55;34.05;;;;;;;0.51;73.59;102946.16;5078301;28;20051;-83
2022/03/21 06:00:30;;;;;;;62.45;33.33;;;;;;;0.59;73.12;102956.84;5080612;28;20026;-83
2022/03/21 06:02:55;;;;;;;69.82;34.47;;;;;;;0.61;73.08;102957.78;5079621;28;20039;-83
2022/03/21 06:05:22;;;;;;;68.03;32.60;;;;;;;0.57;70.81;102954.19;5080683;28;20027;-83
2022/03/21 06:07:49;;;;;;;64.25;31.30;;;;;;;0.57;70.81;102958.50;5078307;28;20032;-82
2022/03/21 06:10:15;;;;;;;65.50;32.53;;;;;;;0.57;71.22;102958.50;5075385;28;20016;-83
2022/03/21 06:12:41;;;;;;;73.35;34.25;;;;;;;0.61;71.31;102969.09;5080383;28;20096;-83
2022/03/21 06:15:08;;;;;;;71.10;33.80;;;;;;;0.60;70.95;102967.28;5081106;28;20074;-82
2022/03/21 06:17:41;;;;;;;66.28;33.05;;;;;;;0.58;70.72;102970.69;5081999;28;20032;-83
2022/03/21 06:20:12;;;;;;;74.55;35.88;;;;;;;0.66;70.76;102969.25;5080155;28;20287;-82
2022/03/21 06:22:37;;;;;;;73.53;36.28;;;;;;;0.70;71.13;102966.81;5078928;28;20063;-83
2022/03/21 06:25:03;;;;;;;67.18;34.15;;;;;;;0.71;70.91;102970.28;5079078;28;20059;-82
2022/03/21 06:27:29;;;;;;;58.80;31.35;;;;;;;0.72;70.85;102970.34;5077374;28;20036;-83
2022/03/21 06:29:54;;;;;;;69.10;33.10;;;;;;;0.78;70.94;102985.28;5079293;28;20081;-82
2022/03/21 06:32:20;;;;;;;70.13;33.58;;;;;;;0.79;71.21;102970.53;5079117;28;20032;-83
2022/03/21 06:34:45;;;;;;;67.63;32.28;;;;;;;0.93;72.08;102970.19;5080207;28;20483;-83
2022/03/21 06:37:11;;;;;;;66.28;32.47;;;;;;;1.05;70.57;102981.84;5079817;28;20060;-83
2022/03/21 06:39:36;;;;;;;64.65;33.00;;;;;;;1.19;72.84;102972.75;5083060;28;20079;-83
2022/03/21 06:42:02;;;;;;;69.10;33.67;;;;;;;1.30;72.95;102981.78;5081282;28;20466;-83
2022/03/21 06:44:27;;;;;;;69.22;33.67;;;;;;;1.38;72.49;102976.84;5079545;28;20051;-83
2022/03/21 06:46:53;;;;;;;64.93;32.63;;;;;;;1.46;71.79;102983.19;5075826;28;20098;-84
2022/03/21 06:49:20;;;;;;;67.60;34.53;;;;;;;1.53;73.13;102987.75;5078930;28;20031;-83
2022/03/21 06:51:45;;;;;;;71.95;35.47;;;;;;;1.65;72.12;102993.34;5081769;28;20012;-83
2022/03/21 06:54:11;;;;;;;61.60;32.13;;;;;;;1.75;72.81;102991.91;5079230;28;20024;-83
2022/03/21 06:56:36;;;;;;;61.38;32.53;;;;;;;1.85;71.83;102999.19;5078406;28;20020;-83
2022/03/21 06:59:01;;;;;;;69.05;34.53;;;;;;;1.91;72.01;102994.16;5076984;28;20126;-83
2022/03/21 07:01:27;;;;;;;60.38;31.85;;;;;;;1.98;72.63;102990.00;5077938;28;20024;-84
2022/03/21 07:03:52;;;;;;;67.10;34.45;;;;;;;2.09;72.99;102995.53;5073559;28;20659;-84
2022/03/21 07:06:19;;;;;;;69.90;33.40;;;;;;;2.21;72.94;103001.13;5078254;28;20024;-84
2022/03/21 07:08:51;;;;;;;66.43;32.83;;;;;;;2.24;72.83;103004.72;5077252;28;20081;-83
2022/03/21 07:11:18;;;;;;;67.70;34.50;;;;;;;2.28;73.10;102993.53;5077902;28;20020;-84
2022/03/21 07:13:43;;;;;;;69.75;35.65;;;;;;;2.40;72.85;103011.25;5078684;28;20460;-84
2022/03/21 07:16:10;;;;;;;65.57;33.30;;;;;;;2.49;73.39;103005.41;5079121;28;20035;-83
2022/03/21 07:18:35;;;;;;;69.38;33.50;;;;;;;2.57;72.83;103009.13;5076820;28;20410;-83
2022/03/21 07:21:00;;;;;;;70.03;35.63;;;;;;;2.73;72.76;103018.25;5081958;28;20037;-83
2022/03/21 07:23:25;;;;;;;67.80;34.83;;;;;;;2.83;73.84;103009.81;5078991;28;20078;-83
2022/03/21 07:25:51;;;;;;;74.20;35.13;;;;;;;2.92;73.30;103017.88;5079615;28;20034;-83
2022/03/21 07:28:16;;;;;;;60.85;34.58;;;;;;;3.00;74.13;103018.97;5090467;28;20083;-83
2022/03/21 07:30:42;;;;;;;67.63;32.45;;;;;;;3.11;73.52;103013.13;5091442;28;20483;-83
2022/03/21 07:33:08;;;;;;;57.72;30.88;;;;;;;3.30;73.03;103015.38;5087237;28;20024;-83
2022/03/21 07:35:33;;;;;;;76.78;36.72;;;;;;;3.44;74.29;103013.09;5091775;28;20386;-84
2022/03/21 07:37:58;;;;;;;64.35;34.30;;;;;;;3.62;73.98;103013.53;5076003;28;20032;-84
2022/03/21 07:40:25;;;;;;;57.08;30.63;;;;;;;3.86;73.45;103023.66;5081009;28;20400;-82
2022/03/21 07:42:50;;;;;;;66.20;34.83;;;;;;;3.99;73.32;103015.25;5075939;28;20061;-82
2022/03/21 07:48:00;;;;;;;70.65;36.92;;;;;;;4.36;75.08;103023.88;5079467;28;20043;-84
2022/03/21 07:50:27;;;;;;;68.57;35.45;;;;;;;4.56;74.88;103024.28;5077707;28;20036;-83
2022/03/21 07:52:55;;;;;;;67.43;36.10;;;;;;;4.81;75.29;103026.53;5076972;28;20060;-84
2022/03/21 07:55:21;;;;;;;62.38;34.15;;;;;;;5.06;75.62;103017.38;5075168;28;20024;-83
2022/03/21 07:57:46;;;;;;;70.25;35.97;;;;;;;5.24;76.17;103013.31;5078251;28;20035;-84
2022/03/21 08:00:13;;;;;;;62.60;33.42;;;;;;;5.60;75.63;103016.53;5079482;28;20035;-84
2022/03/21 08:02:41;;;;;;;60.13;31.05;;;;;;;6.03;74.59;103021.53;5078383;28;20024;-83
2022/03/21 08:05:07;;;;;;;57.42;30.02;;;;;;;6.48;74.22;103018.63;5078784;28;20436;-83
2022/03/21 08:07:32;;;;;;;53.88;29.35;;;;;;;6.88;72.95;103006.78;5080156;28;20085;-84
2022/03/21 08:09:58;;;;;;;54.00;27.48;;;;;;;7.37;71.28;103017.75;5081553;28;20047;-83
2022/03/21 08:12:24;;;;;;;51.08;27.75;;;;;;;7.77;71.21;103027.69;5081413;28;20105;-84
2022/03/21 08:14:51;;;;;;;47.58;25.65;;;;;;;8.13;69.36;103021.75;5078947;28;20074;-84
2022/03/21 08:17:18;;;;;;;47.25;26.38;;;;;;;8.53;68.54;103021.94;5081520;28;20383;-84
2022/03/21 08:19:43;;;;;;;44.97;25.95;;;;;;;8.93;65.87;103022.94;5082321;28;20027;-84
2022/03/21 08:22:09;;;;;;;42.63;25.02;;;;;;;9.18;65.61;103019.44;5083548;28;20027;-84
2022/03/21 08:24:35;;;;;;;41.85;23.65;;;;;;;9.51;64.72;103027.34;5078438;28;20039;-84
2022/03/21 08:27:00;;;;;;;41.72;22.75;;;;;;;9.81;63.58;103018.53;5083988;28;20031;-84
2022/03/21 08:29:26;;;;;;;38.25;21.98;;;;;;;10.18;62.47;103024.59;5077526;28;20043;-84
2022/03/21 08:31:51;;;;;;;36.30;20.92;;;;;;;10.53;60.22;103023.56;5081494;28;20365;-84
2022/03/21 08:34:16;;;;;;;39.53;20.85;;;;;;;10.66;60.43;103020.00;5082911;28;20032;-84
2022/03/21 08:36:42;;;;;;;33.75;20.10;;;;;;;10.88;59.37;103012.81;5084374;28;20042;-84
2022/03/21 08:39:09;;;;;;;29.92;20.08;;;;;;;10.91;57.80;103016.31;5082130;28;20728;-84
2022/03/21 08:41:35;;;;;;;32.63;20.02;;;;;;;11.43;58.35;103017.69;5086890;28;20111;-84
2022/03/21 08:44:00;;;;;;;33.20;21.13;;;;;;;11.98;56.70;103022.44;5084674;28;20111;-84
2022/03/21 08:46:26;;;;;;;32.42;18.98;;;;;;;12.03;54.92;103025.03;5082248;28;20024;-84
2022/03/21 08:51:37;;;;;;;31.20;17.15;;;;;;;12.61;53.88;103019.03;5084396;28;20043;-84
2022/03/21 08:54:04;;;;;;;27.80;17.00;;;;;;;13.13;53.10;103020.91;5076354;28;20036;-84
2022/03/21 08:56:29;;;;;;;27.10;15.93;;;;;;;13.13;50.58;103008.50;5084152;28;20437;-84
2022/03/21 08:58:55;;;;;;;24.50;15.82;;;;;;;13.36;50.66;103012.59;5082678;28;20024;-85
2022/03/21 09:01:21;;;;;;;24.05;15.10;;;;;;;13.86;49.47;103008.16;5082709;28;20031;-84
2022/03/21 09:03:46;;;;;;;23.88;14.32;;;;;;;14.39;47.86;103016.81;5082439;28;20109;-84
2022/03/21 09:06:11;;;;;;;29.65;16.52;;;;;;;14.69;47.66;103013.53;5082099;28;20028;-84
2022/03/21 09:08:37;;;;;;;24.73;15.38;;;;;;;15.14;47.52;103013.34;5076585;28;20036;-84
2022/03/21 09:11:04;;;;;;;26.88;15.50;;;;;;;15.36;46.04;103020.81;5080464;28;20034;-84
2022/03/21 09:13:30;;;;;;;32.75;16.00;;;;;;;15.47;46.01;103029.41;5081838;28;20099;-84
2022/03/21 09:15:56;;;;;;;26.77;15.23;;;;;;;16.20;44.28;103021.22;5081784;28;20111;-84
2022/03/21 09:18:21;;;;;;;29.98;15.02;;;;;;;16.92;43.33;103013.72;5081908;28;20027;-84
2022/03/21 09:20:47;;;;;;;26.33;15.02;;;;;;;17.33;42.27;103015.03;5082636;28;20055;-84
2022/03/21 09:23:12;;;;;;;24.48;15.18;;;;;;;17.67;40.01;103012.06;5082119;28;20074;-84
2022/03/21 09:25:38;;;;;;;27.67;15.75;;;;;;;18.25;40.50;103018.00;5079476;28;20036;-84
2022/03/21 09:28:03;;;;;;;25.30;15.85;;;;;;;18.77;40.52;103007.09;5082443;28;20028;-84
2022/03/21 09:30:29;;;;;;;25.73;15.82;;;;;;;19.46;37.39;103006.91;5083861;28;20032;-84
2022/03/21 09:32:54;;;;;;;27.15;15.98;;;;;;;19.99;36.83;103007.25;5080847;28;20036;-85
2022/03/21 09:35:19;;;;;;;29.85;15.10;;;;;;;20.36;35.35;103009.09;5082107;28;20019;-84
2022/03/21 09:37:45;;;;;;;25.50;16.05;;;;;;;21.01;34.33;103006.03;5079855;28;20059;-84
2022/03/21 09:40:11;;;;;;;23.63;14.90;;;;;;;21.37;33.52;102996.13;5077750;28;20052;-85
2022/03/21 09:42:39;;;;;;;27.55;15.40;;;;;;;21.44;31.46;102999.38;5081141;28;20093;-84
2022/03/21 09:45:05;;;;;;;22.45;14.23;;;;;;;21.58;31.69;102987.88;5083454;28;20226;-84
2022/03/21 09:50:15;;;;;;;26.27;14.32;;;;;;;22.12;28.96;102999.41;5080491;28;20166;-84
2022/03/21 09:52:40;;;;;;;20.02;13.85;;;;;;;22.94;30.64;102993.00;5080917;28;20106;-85
2022/03/21 09:55:07;;;;;;;23.80;14.15;;;;;;;23.50;28.53;102989.66;5084010;28;20043;-84
2022/03/21 09:57:33;;;;;;;22.48;14.07;;;;;;;23.50;28.58;102995.06;5082842;28;20031;-85
2022/03/21 09:59:59;;;;;;;23.00;13.95;;;;;;;22.68;28.16;102995.34;5078164;28;20503;-85
2022/03/21 10:02:24;;;;;;;20.38;13.65;;;;;;;22.89;28.31;102988.72;5076368;28;20027;-84
2022/03/21 10:04:51;;;;;;;22.83;14.23;;;;;;;22.49;27.29;102991.97;5077555;28;20517;-85
2022/03/21 10:07:28;;;;;;;26.10;15.25;;;;;;;22.16;29.74;102984.81;5080511;28;20036;-85
2022/03/21 10:10:14;;;;;;;23.23;14.23;;;;;;;22.56;30.10;102986.13;5080085;28;20574;-85
2022/03/21 10:12:40;;;;;;;24.20;13.13;;;;;;;22.96;28.51;102980.31;5081370;28;20403;-85
2022/03/21 10:15:06;;;;;;;21.08;13.65;;;;;;;24.11;26.90;102985.00;5077607;28;20036;-85
2022/03/21 10:17:32;;;;;;;21.20;12.45;;;;;;;24.17;25.02;102987.31;5077716;28;20473;-84
2022/03/21 10:19:58;;;;;;;22.17;13.45;;;;;;;24.10;26.41;102976.00;5078419;28;20050;-85
2022/03/21 10:22:43;;;;;;;20.85;13.75;;;;;;;24.19;27.70;102977.25;5080100;28;20032;-85
2022/03/21 10:25:17;;;;;;;22.08;13.85;;;;;;;24.23;25.19;102976.09;5079876;28;20042;-85
2022/03/21 10:27:45;;;;;;;21.30;13.90;;;;;;;23.94;25.53;102983.34;5079168;28;20119;-86
2022/03/21 10:30:18;;;;;;;21.15;13.52;;;;;;;24.36;27.98;102981.56;5079096;28;20028;-86
2022/03/21 10:32:46;;;;;;;22.60;13.00;;;;;;;24.90;26.46;102968.09;5077417;28;20031;-85
2022/03/21 10:35:12;;;;;;;20.27;13.18;;;;;;;25.31;24.36;102970.72;5080437;28;20024;-86
2022/03/21 10:37:43;;;;;;;22.38;14.30;;;;;;;25.02;24.78;102975.41;5082509;28;20031;-85
2022/03/21 10:40:17;;;;;;;21.70;14.93;;;;;;;25.47;25.54;102970.56;5082109;28;20078;-85
2022/03/21 10:42:55;;;;;;;24.17;13.82;;;;;;;25.97;24.95;102970.69;5081056;28;20486;-85
2022/03/21 10:45:22;;;;;;;22.40;14.18;;;;;;;25.10;24.66;102978.50;5080444;28;20058;-86
2022/03/21 10:47:52;;;;;;;23.60;14.82;;;;;;;25.15;25.12;102970.06;5083262;28;20113;-85
2022/03/21 10:50:47;;;;;;;23.67;15.23;;;;;;;25.76;26.03;102970.38;5078554;28;20084;-85
2022/03/21 10:53:18;;;;;;;25.13;14.77;;;;;;;25.79;23.74;102962.91;5071574;28;20075;-85
2022/03/21 10:55:47;;;;;;;21.35;15.02;;;;;;;25.73;24.28;102970.56;5082698;28;20792;-85
2022/03/21 10:58:17;;;;;;;18.42;14.00;;;;;;;26.15;24.83;102964.78;5081417;28;20118;-85
2022/03/21 11:00:43;;;;;;;23.30;15.07;;;;;;;26.66;23.70;102961.94;5079009;28;20059;-85
2022/03/21 11:03:12;;;;;;;25.65;15.65;;;;;;;25.68;24.23;102960.03;5081654;28;20145;-86
2022/03/21 11:05:48;;;;;;;22.85;15.18;;;;;;;24.78;26.41;102964.41;5079512;28;20036;-86
2022/03/21 11:08:15;;;;;;;28.95;16.42;;;;;;;24.30;24.65;102963.94;5081005;28;20031;-85
2022/03/21 11:10:42;;;;;;;21.70;15.77;;;;;;;24.52;26.20;102951.72;5078437;28;20324;-85
2022/03/21 11:13:09;;;;;;;24.90;16.15;;;;;;;24.79;25.23;102949.03;5077764;28;20097;-85
2022/03/21 11:15:37;;;;;;;21.63;15.70;;;;;;;24.66;27.07;102955.25;5081087;28;20777;-86
2022/03/21 11:18:04;;;;;;;23.10;16.02;;;;;;;24.72;25.54;102948.59;5079178;28;20052;-86
2022/03/21 11:20:30;;;;;;;23.73;14.45;;;;;;;25.20;27.55;102951.66;5079070;28;20024;-86
2022/03/21 11:22:57;;;;;;;23.98;16.35;;;;;;;25.22;26.95;102947.00;5076825;28;20089;-85
2022/03/21 11:25:28;;;;;;;25.65;17.08;;;;;;;24.32;25.47;102951.16;5080683;28;20111;-83
2022/03/21 11:28:31;;;;;;;23.90;16.70;;;;;;;24.38;27.65;102953.50;5079335;28;20124;-85
2022/03/21 11:31:15;;;;;;;25.67;16.35;;;;;;;23.86;28.30;102946.00;5080955;28;20503;-85
2022/03/21 11:33:51;;;;;;;23.15;15.40;;;;;;;24.28;29.66;102949.63;5078645;28;20082;-86
2022/03/21 11:36:16;;;;;;;22.65;16.23;;;;;;;24.46;27.79;102944.03;5077195;28;20036;-86